Time;durP1;ratioP1;P1;durP2;ratioP2;P2;SDS_P1;SDS_P2;PMS_P1;PMS_P2;Temp;Humidity;BMP_temperature;BMP_pressure;BME280_temperature;BME280_humidity;BME280_pressure;Samples;Min_cycle;Max_cycle;Signal;HPM_P1;HPM_P2
2022/09/18 00:00:38;;;;;;;12.13;1.75;;;11.60;99.90;;;;;;5051723;28;20048;-48
2022/09/18 00:03:04;;;;;;;14.23;2.13;;;11.80;99.90;;;;;;5053750;28;20139;-44
2022/09/18 00:05:30;;;;;;;12.05;1.30;;;11.60;99.90;;;;;;5053397;28;20055;-48
2022/09/18 00:07:56;;;;;;;9.82;1.80;;;11.70;99.90;;;;;;5050826;28;20487;-45
2022/09/18 00:10:21;;;;;;;10.13;1.50;;;11.70;99.90;;;;;;5053197;28;20092;-48
2022/09/18 00:12:47;;;;;;;10.73;1.45;;;11.60;99.90;;;;;;5053120;28;20037;-46
2022/09/18 00:15:13;;;;;;;12.68;1.50;;;11.70;99.90;;;;;;5053388;28;20037;-47
2022/09/18 00:17:38;;;;;;;9.65;1.50;;;11.70;99.90;;;;;;5052706;28;20084;-49
2022/09/18 00:20:06;;;;;;;10.52;1.63;;;11.60;99.90;;;;;;5053258;28;20051;-48
2022/09/18 00:22:32;;;;;;;7.50;1.48;;;11.80;99.90;;;;;;5052605;28;20420;-48
2022/09/18 00:24:58;;;;;;;9.98;1.40;;;11.70;99.90;;;;;;5053200;28;20427;-44
2022/09/18 00:27:23;;;;;;;9.90;1.55;;;11.70;99.90;;;;;;5053178;28;20044;-48
2022/09/18 00:29:49;;;;;;;5.38;1.05;;;11.80;99.90;;;;;;5053129;28;20073;-47
2022/09/18 00:32:15;;;;;;;11.30;0.98;;;11.70;99.90;;;;;;5050715;28;20029;-45
2022/09/18 00:34:40;;;;;;;9.85;1.52;;;11.70;99.90;;;;;;5053090;28;20033;-46
2022/09/18 00:37:06;;;;;;;7.72;1.27;;;11.80;99.90;;;;;;5052882;28;20036;-46
2022/09/18 00:39:32;;;;;;;6.82;1.17;;;11.80;99.90;;;;;;5052883;28;20087;-45
2022/09/18 00:41:58;;;;;;;7.07;1.35;;;11.70;99.90;;;;;;5051893;28;20041;-47
2022/09/18 00:44:33;;;;;;;8.02;1.23;;;11.80;99.90;;;;;;5052761;28;20422;-48
2022/09/18 00:47:11;;;;;;;6.65;1.27;;;11.80;99.90;;;;;;5052682;28;20036;-49
2022/09/18 00:50:08;;;;;;;7.03;1.23;;;11.80;99.90;;;;;;5052681;28;20086;-49
2022/09/18 00:52:57;;;;;;;6.05;1.00;;;11.90;99.90;;;;;;5044942;28;20040;-49
2022/09/18 00:55:31;;;;;;;9.02;1.60;;;11.80;99.90;;;;;;5051639;28;20058;-46
2022/09/18 00:57:59;;;;;;;6.88;1.45;;;11.90;99.90;;;;;;5052301;28;20029;-50
2022/09/18 01:00:25;;;;;;;6.88;1.10;;;11.90;99.90;;;;;;5052628;28;20095;-48
2022/09/18 01:02:51;;;;;;;7.13;1.02;;;11.80;99.90;;;;;;5052520;28;20044;-48
2022/09/18 01:05:45;;;;;;;11.10;1.95;;;11.80;99.90;;;;;;5052216;28;20072;-46
2022/09/18 01:08:22;;;;;;;6.57;1.23;;;11.70;99.90;;;;;;5052015;28;20048;-48
2022/09/18 01:11:09;;;;;;;8.82;1.00;;;11.60;99.90;;;;;;5052055;28;20044;-47
2022/09/18 01:13:43;;;;;;;7.07;1.05;;;11.70;99.90;;;;;;5052048;28;20472;-50
2022/09/18 01:16:23;;;;;;;7.25;1.45;;;11.60;99.90;;;;;;5051641;28;20029;-47
2022/09/18 01:18:59;;;;;;;6.35;1.77;;;11.70;99.90;;;;;;5051542;28;20071;-48
2022/09/18 01:21:55;;;;;;;4.70;1.10;;;11.80;99.90;;;;;;5051744;28;20094;-50
2022/09/18 01:25:04;;;;;;;8.27;1.23;;;11.70;99.90;;;;;;5016511;28;20056;-48
2022/09/18 01:28:13;;;;;;;8.20;0.90;;;11.70;99.90;;;;;;5051748;28;20037;-45
2022/09/18 01:30:42;;;;;;;7.82;1.10;;;11.60;99.90;;;;;;5051642;28;20110;-49
2022/09/18 01:33:27;;;;;;;5.97;1.23;;;11.50;99.90;;;;;;5050974;28;20029;-47
2022/09/18 01:35:55;;;;;;;;;;;11.50;99.90;;;;;;5052031;28;20044;-48
2022/09/18 01:38:28;;;;;;;6.43;0.90;;;11.70;99.90;;;;;;5051772;28;19931;-48
2022/09/18 01:41:22;;;;;;;5.55;0.95;;;11.40;99.90;;;;;;5049602;28;20044;-49
2022/09/18 01:43:53;;;;;;;5.53;1.23;;;11.40;99.90;;;;;;5051531;28;20041;-48
2022/09/18 01:46:19;;;;;;;5.90;0.75;;;11.40;99.90;;;;;;5051403;28;20029;-49
2022/09/18 01:48:58;;;;;;;4.90;0.90;;;11.50;99.90;;;;;;5051676;28;20045;-46
2022/09/18 01:51:51;;;;;;;5.68;0.80;;;11.30;99.90;;;;;;5051090;28;20049;-45
2022/09/18 01:54:21;;;;;;;4.32;0.80;;;11.40;99.90;;;;;;5043051;28;20056;-46
2022/09/18 01:57:14;;;;;;;3.67;0.70;;;11.40;99.90;;;;;;5050964;28;20373;-44
2022/09/18 01:59:48;;;;;;;5.25;0.88;;;11.40;99.90;;;;;;5040429;28;20053;-48
2022/09/18 02:02:28;;;;;;;5.47;0.95;;;11.40;99.90;;;;;;5051199;28;20037;-46
2022/09/18 02:04:59;;;;;;;3.78;0.60;;;11.30;99.90;;;;;;5051406;28;20492;-49
2022/09/18 02:07:58;;;;;;;4.03;0.80;;;11.40;99.90;;;;;;5051384;28;20060;-48
2022/09/18 02:10:27;;;;;;;5.45;0.88;;;11.20;99.90;;;;;;5050151;28;20698;-46
2022/09/18 02:12:55;;;;;;;3.60;0.80;;;11.30;99.90;;;;;;5051186;28;20045;-50
2022/09/18 02:15:25;;;;;;;2.55;0.70;;;11.20;99.90;;;;;;5051125;28;20108;-48
2022/09/18 02:18:03;;;;;;;5.68;0.80;;;11.20;99.90;;;;;;5050020;28;20061;-48
2022/09/18 02:20:30;;;;;;;3.80;0.70;;;11.10;99.90;;;;;;5051140;28;20048;-47
2022/09/18 02:23:01;;;;;;;3.95;0.90;;;11.20;99.90;;;;;;5037433;28;20049;-47
2022/09/18 02:25:31;;;;;;;4.78;0.80;;;11.10;99.90;;;;;;5038278;28;20468;-47
2022/09/18 02:27:57;;;;;;;4.97;0.82;;;11.10;99.90;;;;;;5050242;28;20049;-45
2022/09/18 02:30:24;;;;;;;6.50;0.98;;;11.30;99.90;;;;;;5050872;28;20114;-48
2022/09/18 02:32:55;;;;;;;3.58;0.80;;;11.10;99.90;;;;;;5049807;28;20045;-49
2022/09/18 02:35:26;;;;;;;4.25;0.82;;;11.40;99.90;;;;;;5051103;28;20029;-47
2022/09/18 02:38:09;;;;;;;4.72;1.00;;;11.20;99.90;;;;;;5050792;28;20044;-49
2022/09/18 02:40:55;;;;;;;8.02;1.15;;;11.20;99.90;;;;;;5050590;28;20067;-49
2022/09/18 02:43:46;;;;;;;9.85;1.50;;;11.40;99.90;;;;;;5050236;28;21210;-44
2022/09/18 02:46:24;;;;;;;3.95;0.88;;;11.40;99.90;;;;;;5051805;28;20045;-46
2022/09/18 02:49:03;;;;;;;8.77;1.00;;;11.30;99.90;;;;;;5050973;28;20063;-48
2022/09/18 02:51:30;;;;;;;6.60;0.80;;;11.40;99.90;;;;;;5050257;28;20037;-48
2022/09/18 02:54:18;;;;;;;4.07;0.80;;;11.30;99.90;;;;;;5050557;28;20120;-47
2022/09/18 02:56:52;;;;;;;5.40;0.85;;;11.40;99.90;;;;;;5049266;28;20039;-45
2022/09/18 02:59:32;;;;;;;5.22;0.90;;;11.40;99.90;;;;;;5050459;28;20044;-48
2022/09/18 03:01:58;;;;;;;5.43;1.23;;;11.40;99.90;;;;;;5049186;28;20063;-47
2022/09/18 03:04:26;;;;;;;6.40;0.90;;;11.30;99.90;;;;;;5052039;28;20483;-47
2022/09/18 03:06:52;;;;;;;7.97;0.90;;;11.20;99.90;;;;;;5054452;28;20037;-48
2022/09/18 03:09:19;;;;;;;6.00;0.93;;;11.30;99.90;;;;;;5054700;28;20039;-45
2022/09/18 03:11:44;;;;;;;4.30;1.00;;;11.40;99.90;;;;;;5054292;28;20045;-49
2022/09/18 03:14:11;;;;;;;7.75;1.10;;;11.30;99.90;;;;;;5054574;28;20043;-49
2022/09/18 03:16:37;;;;;;;6.03;1.20;;;11.40;99.90;;;;;;5054330;28;20044;-46
2022/09/18 03:19:03;;;;;;;6.50;1.05;;;11.20;99.90;;;;;;5054335;28;20051;-47
2022/09/18 03:21:29;;;;;;;8.35;1.13;;;11.40;99.90;;;;;;5053742;28;20064;-46
2022/09/18 03:23:55;;;;;;;4.57;1.15;;;11.40;99.90;;;;;;5054205;28;20080;-47
2022/09/18 03:26:20;;;;;;;6.45;1.10;;;11.30;99.90;;;;;;5054180;28;20071;-49
2022/09/18 03:28:46;;;;;;;7.18;1.15;;;11.20;99.90;;;;;;5054450;28;20045;-50
2022/09/18 03:31:12;;;;;;;9.80;1.10;;;11.40;99.90;;;;;;5054221;28;20041;-46
2022/09/18 03:33:38;;;;;;;6.60;0.73;;;11.30;99.90;;;;;;5036069;28;20090;-49
2022/09/18 03:36:05;;;;;;;4.93;1.00;;;11.40;99.90;;;;;;5054279;28;20434;-49
2022/09/18 03:38:31;;;;;;;8.10;1.30;;;11.30;99.90;;;;;;5053227;28;20066;-45
2022/09/18 03:40:57;;;;;;;6.38;1.17;;;11.30;99.90;;;;;;5053804;28;20119;-48
2022/09/18 03:43:23;;;;;;;5.25;0.80;;;11.20;99.90;;;;;;5054269;28;20083;-47
2022/09/18 03:45:49;;;;;;;8.70;1.00;;;11.30;99.90;;;;;;5051164;28;20056;-48
2022/09/18 03:48:14;;;;;;;7.05;1.05;;;11.20;99.90;;;;;;5053880;28;20055;-47
2022/09/18 03:50:40;;;;;;;5.30;0.90;;;11.20;99.90;;;;;;5048020;28;20041;-46
2022/09/18 03:53:07;;;;;;;6.22;0.90;;;11.10;99.90;;;;;;5053590;28;20091;-48
2022/09/18 03:55:34;;;;;;;4.70;1.13;;;11.30;99.90;;;;;;5053464;28;20047;-47
2022/09/18 03:58:00;;;;;;;8.68;1.10;;;11.10;99.90;;;;;;5045121;28;20044;-48
2022/09/18 04:00:26;;;;;;;5.68;0.82;;;11.20;99.90;;;;;;5053573;28;20033;-49
2022/09/18 04:02:51;;;;;;;7.57;2.15;;;11.20;99.90;;;;;;5034073;28;20037;-48
2022/09/18 04:05:17;;;;;;;7.13;0.98;;;11.10;99.90;;;;;;5053291;28;20496;-49
2022/09/18 04:07:43;;;;;;;3.72;0.80;;;11.20;99.90;;;;;;5053315;28;20048;-49
2022/09/18 04:10:09;;;;;;;6.32;1.63;;;11.10;99.90;;;;;;5053563;28;20069;-46
2022/09/18 04:12:34;;;;;;;5.05;0.98;;;11.10;99.90;;;;;;5053330;28;20041;-45
2022/09/18 04:15:00;;;;;;;7.13;0.90;;;11.20;99.90;;;;;;5053448;28;20029;-44
2022/09/18 04:17:26;;;;;;;5.65;0.80;;;11.20;99.90;;;;;;5053113;28;20045;-46
2022/09/18 04:19:51;;;;;;;4.18;0.80;;;11.20;99.90;;;;;;5053007;28;20049;-46
2022/09/18 04:22:17;;;;;;;6.50;0.90;;;11.30;99.90;;;;;;5040433;28;20124;-47
2022/09/18 04:24:44;;;;;;;6.00;1.08;;;11.10;99.90;;;;;;5047605;28;20068;-49
2022/09/18 04:27:10;;;;;;;2.08;0.60;;;11.10;99.90;;;;;;5053297;28;20033;-49
2022/09/18 04:29:35;;;;;;;5.85;0.98;;;11.10;99.90;;;;;;5053073;28;20075;-46
2022/09/18 04:32:01;;;;;;;6.85;1.00;;;11.00;99.90;;;;;;5053025;28;20171;-48
2022/09/18 04:34:27;;;;;;;3.90;0.70;;;11.20;99.90;;;;;;5053117;28;20484;-45
2022/09/18 04:36:53;;;;;;;5.45;0.85;;;11.00;99.90;;;;;;5052676;28;20072;-50
2022/09/18 04:39:18;;;;;;;6.13;0.85;;;11.00;99.90;;;;;;5053033;28;20052;-48
2022/09/18 04:41:44;;;;;;;6.93;0.90;;;10.90;99.90;;;;;;5052929;28;20049;-43
2022/09/18 04:44:13;;;;;;;4.53;0.82;;;11.10;99.90;;;;;;5052720;28;20050;-46
2022/09/18 04:46:39;;;;;;;5.75;1.10;;;11.00;99.90;;;;;;5052971;28;20384;-47
2022/09/18 04:49:04;;;;;;;6.78;0.90;;;11.10;99.90;;;;;;5052752;28;20048;-46
2022/09/18 04:51:30;;;;;;;3.17;0.80;;;11.10;99.90;;;;;;5050381;28;20062;-47
2022/09/18 04:53:56;;;;;;;4.53;0.70;;;10.90;99.90;;;;;;5052312;28;20123;-49
2022/09/18 04:56:22;;;;;;;5.00;0.57;;;10.90;99.90;;;;;;5046824;28;20163;-46
2022/09/18 04:58:48;;;;;;;6.40;0.80;;;10.80;99.90;;;;;;5052281;28;20395;-46
2022/09/18 05:01:13;;;;;;;4.30;0.60;;;10.90;99.90;;;;;;5052563;28;20060;-48
2022/09/18 05:03:39;;;;;;;2.20;0.65;;;10.90;99.90;;;;;;5052323;28;20033;-46
2022/09/18 05:06:05;;;;;;;5.38;0.90;;;11.00;99.90;;;;;;5052423;28;20068;-45
2022/09/18 05:08:33;;;;;;;6.75;0.93;;;11.00;99.90;;;;;;5052412;28;20032;-48
2022/09/18 05:10:59;;;;;;;3.97;0.85;;;10.80;99.90;;;;;;5052387;28;20115;-44
2022/09/18 05:13:25;;;;;;;6.30;1.00;;;10.80;99.90;;;;;;5052375;28;20048;-47
2022/09/18 05:15:55;;;;;;;5.93;0.70;;;11.00;99.90;;;;;;5050496;28;20443;-50
2022/09/18 05:18:21;;;;;;;4.13;0.98;;;10.90;99.90;;;;;;5050732;28;20057;-47
2022/09/18 05:20:47;;;;;;;6.47;0.85;;;11.00;99.90;;;;;;5052286;28;20518;-46
2022/09/18 05:23:13;;;;;;;6.45;1.00;;;11.00;99.90;;;;;;5051466;28;20064;-46
2022/09/18 05:25:40;;;;;;;8.55;1.02;;;10.90;99.90;;;;;;5049660;28;20068;-47
2022/09/18 05:28:05;;;;;;;4.90;0.90;;;11.10;99.90;;;;;;5051619;28;20036;-47
2022/09/18 05:30:31;;;;;;;7.38;0.82;;;11.10;99.90;;;;;;5051719;28;20492;-45
2022/09/18 05:33:00;;;;;;;5.88;1.20;;;11.00;99.90;;;;;;5051903;28;20052;-47
2022/09/18 05:35:28;;;;;;;6.57;0.98;;;10.80;99.90;;;;;;5051684;28;20072;-46
2022/09/18 05:37:54;;;;;;;7.85;1.45;;;10.80;99.90;;;;;;5051647;28;20081;-45
2022/09/18 05:40:24;;;;;;;7.15;1.00;;;11.00;99.90;;;;;;5051942;28;20052;-46
2022/09/18 05:42:53;;;;;;;5.15;1.00;;;11.00;99.90;;;;;;5051792;28;20045;-47
2022/09/18 05:45:20;;;;;;;5.07;0.80;;;11.10;99.90;;;;;;5051772;28;20040;-46
2022/09/18 05:47:54;;;;;;;6.20;1.10;;;11.10;99.90;;;;;;5051708;28;20045;-46
2022/09/18 05:50:20;;;;;;;5.47;0.85;;;11.00;99.90;;;;;;5051544;28;20047;-46
2022/09/18 05:52:46;;;;;;;5.45;1.00;;;10.90;99.90;;;;;;5051342;28;20496;-48
2022/09/18 05:55:12;;;;;;;6.10;0.80;;;11.10;99.90;;;;;;5051464;28;20094;-44
2022/09/18 05:57:37;;;;;;;9.35;1.20;;;10.90;99.90;;;;;;5049575;28;20481;-47
2022/09/18 06:00:04;;;;;;;6.43;0.82;;;11.00;99.90;;;;;;5051480;28;20033;-43
2022/09/18 06:02:29;;;;;;;2.92;0.77;;;11.10;99.90;;;;;;5051140;28;20037;-44
2022/09/18 06:04:55;;;;;;;4.32;0.90;;;11.20;99.90;;;;;;5050804;28;20040;-46
2022/09/18 06:07:21;;;;;;;6.15;0.82;;;11.00;99.90;;;;;;5049600;28;20037;-49
2022/09/18 06:09:47;;;;;;;7.93;1.00;;;10.90;99.90;;;;;;5051247;28;20392;-45
2022/09/18 06:12:12;;;;;;;6.20;0.80;;;10.90;99.90;;;;;;5051368;28;20040;-44
2022/09/18 06:14:38;;;;;;;6.85;1.02;;;11.10;99.90;;;;;;5051110;28;20033;-50
2022/09/18 06:17:04;;;;;;;3.58;0.80;;;11.20;99.90;;;;;;5051010;28;20049;-48
2022/09/18 06:19:30;;;;;;;7.20;1.17;;;11.20;99.90;;;;;;5051135;28;20037;-47
2022/09/18 06:21:56;;;;;;;9.48;1.00;;;11.20;99.90;;;;;;5046333;28;20029;-50
2022/09/18 06:24:21;;;;;;;6.38;0.80;;;11.40;99.90;;;;;;5048474;28;20128;-48
2022/09/18 06:26:48;;;;;;;6.53;0.88;;;11.30;99.90;;;;;;5050982;28;20401;-46
2022/09/18 06:29:14;;;;;;;8.77;0.95;;;11.10;99.90;;;;;;5050971;28;20033;-45
2022/09/18 06:31:40;;;;;;;5.60;0.88;;;11.30;99.90;;;;;;5048879;28;20132;-46
2022/09/18 06:34:05;;;;;;;6.68;0.98;;;11.10;99.90;;;;;;5044984;28;20041;-49
2022/09/18 06:36:31;;;;;;;7.88;1.10;;;11.30;99.90;;;;;;5043224;28;20036;-43
2022/09/18 06:38:57;;;;;;;5.40;0.82;;;11.40;99.90;;;;;;5047178;28;20069;-46
2022/09/18 06:41:23;;;;;;;4.38;0.80;;;11.20;99.90;;;;;;5051008;28;20529;-48
2022/09/18 06:43:51;;;;;;;3.95;0.80;;;11.10;99.90;;;;;;5050580;28;20041;-48
2022/09/18 06:46:17;;;;;;;5.68;1.23;;;11.30;99.90;;;;;;5050759;28;20037;-45
2022/09/18 06:48:43;;;;;;;4.95;0.93;;;11.40;99.90;;;;;;5050833;28;20490;-45
2022/09/18 06:51:08;;;;;;;9.77;1.30;;;11.30;99.90;;;;;;5050621;28;20041;-51
2022/09/18 06:53:34;;;;;;;7.65;1.00;;;11.20;99.90;;;;;;5050020;28;20051;-48
2022/09/18 06:56:02;;;;;;;5.20;1.25;;;11.40;99.90;;;;;;5050711;28;20495;-45
2022/09/18 06:58:28;;;;;;;6.55;1.02;;;11.40;99.90;;;;;;5050587;28;20476;-48
2022/09/18 07:00:53;;;;;;;9.27;1.00;;;11.50;99.90;;;;;;5048094;28;20037;-45
2022/09/18 07:03:19;;;;;;;5.93;1.02;;;11.30;99.90;;;;;;5050671;28;20029;-44
2022/09/18 07:05:45;;;;;;;9.82;1.40;;;11.40;99.90;;;;;;5049121;28;20464;-46
2022/09/18 07:08:11;;;;;;;8.38;1.48;;;11.40;99.90;;;;;;5044453;28;20045;-48
2022/09/18 07:10:38;;;;;;;6.38;1.17;;;11.40;99.90;;;;;;5044474;28;20041;-50
2022/09/18 07:13:04;;;;;;;9.27;1.30;;;11.30;99.90;;;;;;5049123;28;20044;-48
2022/09/18 07:15:30;;;;;;;6.43;1.10;;;11.40;99.90;;;;;;5049078;28;20040;-48
2022/09/18 07:18:01;;;;;;;7.20;1.23;;;11.20;99.90;;;;;;5049820;28;20408;-45
2022/09/18 07:20:28;;;;;;;7.35;1.27;;;11.40;99.90;;;;;;5047766;28;20045;-48
2022/09/18 07:22:56;;;;;;;6.50;0.90;;;11.40;99.90;;;;;;5046509;28;20045;-47
2022/09/18 07:25:22;;;;;;;4.82;0.88;;;11.30;99.90;;;;;;5046589;28;20041;-48
2022/09/18 07:27:48;;;;;;;7.75;0.95;;;11.40;99.90;;;;;;5048174;28;20069;-48
2022/09/18 07:30:15;;;;;;;6.28;1.42;;;11.30;99.90;;;;;;5048733;28;20697;-44
2022/09/18 07:32:40;;;;;;;6.85;1.23;;;11.30;99.90;;;;;;5048391;28;20618;-46
2022/09/18 07:35:06;;;;;;;7.25;1.17;;;11.40;99.90;;;;;;5048716;28;20116;-45
2022/09/18 07:37:32;;;;;;;8.25;1.27;;;11.60;99.90;;;;;;5048056;28;20033;-45
2022/09/18 07:39:58;;;;;;;4.00;0.85;;;11.40;99.90;;;;;;5046627;28;20191;-44
2022/09/18 07:42:25;;;;;;;5.53;0.90;;;11.70;99.90;;;;;;5047635;28;20257;-46
2022/09/18 07:44:50;;;;;;;4.00;0.80;;;11.50;99.90;;;;;;5047371;28;20037;-48
2022/09/18 07:47:16;;;;;;;6.85;1.00;;;11.40;99.90;;;;;;5048464;28;20044;-49
2022/09/18 07:49:42;;;;;;;5.50;1.85;;;11.60;99.90;;;;;;5048788;28;20458;-48
2022/09/18 07:52:08;;;;;;;4.50;1.13;;;11.70;99.90;;;;;;5051441;28;20399;-48
2022/09/18 07:54:34;;;;;;;6.55;0.98;;;11.70;99.90;;;;;;5051863;28;20047;-47
2022/09/18 07:57:00;;;;;;;5.90;0.88;;;11.70;99.90;;;;;;5034880;28;20051;-44
2022/09/18 07:59:25;;;;;;;5.38;0.80;;;11.60;99.90;;;;;;5051875;28;20106;-45
2022/09/18 08:01:54;;;;;;;6.22;1.00;;;11.60;99.90;;;;;;5051819;28;20041;-47
2022/09/18 08:04:21;;;;;;;5.50;0.80;;;11.70;99.90;;;;;;5051826;28;20047;-46
2022/09/18 08:06:53;;;;;;;4.25;0.88;;;11.60;99.90;;;;;;5051718;28;20036;-49
2022/09/18 08:09:20;;;;;;;4.18;0.50;;;11.70;99.90;;;;;;5049066;28;20123;-45
2022/09/18 08:11:46;;;;;;;5.05;0.70;;;11.60;99.90;;;;;;5050605;28;20091;-46
2022/09/18 08:14:12;;;;;;;2.95;0.80;;;11.70;99.90;;;;;;5048961;28;20041;-49
2022/09/18 08:16:38;;;;;;;5.32;0.73;;;11.50;99.90;;;;;;5050338;28;20041;-45
2022/09/18 08:19:04;;;;;;;2.85;0.60;;;11.50;99.90;;;;;;5050975;28;20188;-46
2022/09/18 08:21:30;;;;;;;3.97;0.50;;;11.40;99.90;;;;;;5029593;28;20112;-45
2022/09/18 08:23:56;;;;;;;2.83;0.50;;;11.20;99.90;;;;;;5050259;28;20396;-47
2022/09/18 08:26:22;;;;;;;2.28;0.45;;;11.30;99.90;;;;;;5049696;28;20040;-48
2022/09/18 08:28:47;;;;;;;4.22;0.57;;;11.10;99.90;;;;;;5051177;28;20128;-46
2022/09/18 08:31:13;;;;;;;3.38;0.63;;;11.10;99.90;;;;;;5050881;28;20041;-46
2022/09/18 08:33:39;;;;;;;2.92;0.60;;;11.20;99.90;;;;;;5048797;28;20041;-46
2022/09/18 08:36:05;;;;;;;2.50;0.50;;;11.20;99.90;;;;;;5050731;28;20044;-46
2022/09/18 08:38:31;;;;;;;4.82;0.75;;;11.00;99.90;;;;;;5049553;28;20064;-43
2022/09/18 08:41:00;;;;;;;3.10;0.60;;;11.10;99.90;;;;;;5050633;28;20486;-47
2022/09/18 08:44:04;;;;;;;5.47;0.55;;;11.00;99.90;;;;;;5046638;28;20047;-46
2022/09/18 08:46:53;;;;;;;3.03;0.50;;;11.00;99.90;;;;;;5050471;28;20041;-46
2022/09/18 08:49:31;;;;;;;3.30;0.50;;;11.10;99.90;;;;;;5014131;28;20060;-46
2022/09/18 08:52:14;;;;;;;1.40;0.50;;;10.90;99.90;;;;;;5049386;28;20047;-45
2022/09/18 08:54:55;;;;;;;4.00;0.60;;;11.00;99.90;;;;;;5032178;28;20577;-45
2022/09/18 08:57:27;;;;;;;3.28;0.60;;;10.80;99.90;;;;;;5047105;28;20127;-46
2022/09/18 09:00:08;;;;;;;2.33;0.90;;;11.00;99.90;;;;;;5048922;28;20041;-46
2022/09/18 09:02:45;;;;;;;3.17;0.63;;;11.00;99.90;;;;;;5048942;28;20128;-45
2022/09/18 09:05:34;;;;;;;2.05;0.57;;;11.10;99.90;;;;;;5050207;28;20029;-46
2022/09/18 09:08:25;;;;;;;2.75;0.73;;;11.00;99.90;;;;;;5034476;28;20080;-44
2022/09/18 09:11:09;;;;;;;2.83;0.70;;;11.00;99.90;;;;;;5050006;28;20131;-44
2022/09/18 09:14:07;;;;;;;2.80;0.52;;;10.90;99.90;;;;;;5051401;28;20484;-47
2022/09/18 09:16:43;;;;;;;3.38;0.60;;;11.10;99.90;;;;;;5051355;28;20037;-47
2022/09/18 09:19:51;;;;;;;4.20;0.70;;;11.10;99.90;;;;;;5050254;28;20053;-45
2022/09/18 09:22:37;;;;;;;4.78;1.17;;;10.90;99.90;;;;;;4969083;28;20035;-45
2022/09/18 09:25:09;;;;;;;4.35;0.70;;;11.10;99.90;;;;;;4969835;28;20098;-47
2022/09/18 09:27:43;;;;;;;6.75;0.90;;;11.00;99.90;;;;;;5024534;28;20540;-46
2022/09/18 09:30:16;;;;;;;5.43;1.10;;;11.00;99.90;;;;;;5051796;28;20442;-44
2022/09/18 09:33:06;;;;;;;4.18;0.75;;;11.20;99.90;;;;;;5048705;28;20098;-47
2022/09/18 09:35:49;;;;;;;4.13;0.60;;;11.20;99.90;;;;;;5051309;28;20033;-47
2022/09/18 09:38:24;;;;;;;9.05;0.90;;;11.30;99.90;;;;;;5050974;28;20550;-46
2022/09/18 09:40:52;;;;;;;5.13;0.80;;;11.20;99.90;;;;;;5051140;28;20120;-44
2022/09/18 09:43:30;;;;;;;16.00;3.22;;;11.40;99.90;;;;;;5051296;28;20472;-47
2022/09/18 09:46:01;;;;;;;3.63;0.70;;;11.40;99.90;;;;;;5051123;28;20127;-45
2022/09/18 09:48:36;;;;;;;6.25;1.17;;;11.30;99.90;;;;;;5049006;28;20110;-47
2022/09/18 09:51:18;;;;;;;5.43;0.80;;;11.20;99.90;;;;;;5048784;28;20037;-45
2022/09/18 09:53:44;;;;;;;5.22;1.20;;;11.30;99.90;;;;;;5049484;28;20041;-47
2022/09/18 09:56:28;;;;;;;5.18;0.80;;;11.40;99.90;;;;;;5051099;28;20037;-44
2022/09/18 09:59:30;;;;;;;6.07;1.00;;;11.50;99.90;;;;;;5050296;28;20048;-46
2022/09/18 10:01:56;;;;;;;6.10;0.90;;;11.70;99.90;;;;;;5025179;28;20055;-45
2022/09/18 10:04:44;;;;;;;4.32;0.70;;;11.70;99.90;;;;;;5051200;28;20430;-44
2022/09/18 10:07:29;;;;;;;7.10;1.08;;;11.90;99.90;;;;;;5050341;28;20041;-48
2022/09/18 10:10:14;;;;;;;6.68;0.75;;;11.70;99.90;;;;;;5051217;28;20127;-44
2022/09/18 10:12:57;;;;;;;5.47;1.13;;;11.80;99.90;;;;;;5050958;28;20029;-46
2022/09/18 10:15:35;;;;;;;4.53;1.40;;;11.90;99.90;;;;;;5051282;28;20488;-48
2022/09/18 10:18:04;;;;;;;5.53;0.90;;;11.90;99.90;;;;;;5050719;28;20057;-48
2022/09/18 10:20:31;;;;;;;6.47;1.08;;;11.80;99.90;;;;;;5050572;28;20118;-43
2022/09/18 10:23:05;;;;;;;7.28;1.30;;;12.00;99.90;;;;;;5042923;28;20029;-46
2022/09/18 10:25:50;;;;;;;5.75;0.85;;;11.80;99.90;;;;;;5051154;28;20060;-47
2022/09/18 10:28:16;;;;;;;4.15;0.82;;;11.80;99.90;;;;;;5051217;28;20040;-44
2022/09/18 10:31:10;;;;;;;4.18;0.70;;;12.00;99.90;;;;;;5050903;28;20387;-46
2022/09/18 10:33:44;;;;;;;;;;;11.90;99.90;;;;;;5049846;28;20067;-44
2022/09/18 10:36:31;;;;;;;5.50;0.70;;;11.80;99.90;;;;;;5050087;28;19917;-46
2022/09/18 10:38:59;;;;;;;7.13;1.02;;;11.70;99.90;;;;;;5047929;28;20102;-45
2022/09/18 10:41:39;;;;;;;7.60;1.08;;;11.80;99.90;;;;;;5049732;28;20095;-45
2022/09/18 10:44:13;;;;;;;7.22;0.80;;;11.80;99.90;;;;;;5046963;28;20514;-45
2022/09/18 10:46:57;;;;;;;5.85;0.90;;;12.10;99.90;;;;;;5041120;28;20045;-45
2022/09/18 10:49:35;;;;;;;5.25;0.80;;;11.90;99.90;;;;;;5026102;28;20459;-44
2022/09/18 10:52:26;;;;;;;6.00;1.27;;;12.00;99.90;;;;;;5044660;28;20110;-46
2022/09/18 10:55:04;;;;;;;4.43;0.93;;;11.90;99.90;;;;;;5041749;28;20049;-45
2022/09/18 10:57:32;;;;;;;4.45;0.93;;;12.00;99.90;;;;;;5043308;28;20064;-44
2022/09/18 10:59:59;;;;;;;6.40;0.80;;;11.90;99.90;;;;;;5044239;28;20037;-45
2022/09/18 11:02:28;;;;;;;6.25;1.05;;;11.80;99.90;;;;;;5049533;28;20444;-45
2022/09/18 11:04:54;;;;;;;4.63;0.88;;;11.60;99.90;;;;;;5047161;28;20120;-44
2022/09/18 11:07:23;;;;;;;6.30;0.73;;;11.70;99.90;;;;;;5049808;28;20434;-46
2022/09/18 11:09:50;;;;;;;4.88;0.90;;;11.60;99.90;;;;;;5047977;28;20049;-47
2022/09/18 11:12:19;;;;;;;6.40;0.93;;;11.70;99.90;;;;;;5047592;28;20080;-44
2022/09/18 11:14:50;;;;;;;6.82;0.90;;;11.60;99.90;;;;;;5050027;28;20077;-45
2022/09/18 11:17:36;;;;;;;7.70;1.08;;;11.70;99.90;;;;;;5050421;28;20124;-47
2022/09/18 11:20:04;;;;;;;6.28;0.73;;;12.00;99.90;;;;;;5049396;28;20045;-45
2022/09/18 11:22:39;;;;;;;7.18;0.93;;;11.70;99.90;;;;;;5050090;28;20396;-44
2022/09/18 11:25:13;;;;;;;5.18;0.80;;;11.90;99.90;;;;;;5051545;28;20471;-45
2022/09/18 11:27:59;;;;;;;4.10;1.00;;;11.90;99.90;;;;;;5054380;28;20036;-47
2022/09/18 11:30:29;;;;;;;5.78;0.93;;;11.90;99.90;;;;;;5054258;28;20381;-45
2022/09/18 11:33:16;;;;;;;6.45;0.88;;;12.00;99.90;;;;;;5053837;28;20057;-47
2022/09/18 11:35:49;;;;;;;5.05;0.80;;;11.80;99.90;;;;;;5054032;28;20051;-45
2022/09/18 11:38:18;;;;;;;8.57;1.10;;;11.80;99.90;;;;;;5054196;28;20607;-48
2022/09/18 11:40:49;;;;;;;3.90;1.05;;;11.90;99.90;;;;;;5053831;28;20037;-45
2022/09/18 11:43:36;;;;;;;4.97;0.77;;;11.80;99.90;;;;;;5053845;28;20064;-47
2022/09/18 11:46:31;;;;;;;6.70;1.20;;;12.00;99.90;;;;;;5054015;28;20041;-47
2022/09/18 11:49:14;;;;;;;6.35;1.13;;;11.90;99.90;;;;;;5053867;28;20037;-45
2022/09/18 11:51:46;;;;;;;10.93;2.13;;;12.10;99.90;;;;;;5053811;28;20036;-45
2022/09/18 11:54:39;;;;;;;6.30;1.30;;;12.10;99.90;;;;;;5053577;28;20039;-45
2022/09/18 11:57:15;;;;;;;5.07;1.15;;;12.10;99.90;;;;;;5053209;28;20529;-44
2022/09/18 11:59:53;;;;;;;6.03;1.00;;;12.20;99.90;;;;;;5053879;28;20400;-44
2022/09/18 12:02:40;;;;;;;5.88;1.10;;;12.40;99.90;;;;;;5052862;28;20060;-44
2022/09/18 12:05:18;;;;;;;8.02;1.92;;;12.30;99.90;;;;;;5053595;28;20483;-43
2022/09/18 12:08:08;;;;;;;7.43;0.93;;;12.50;99.90;;;;;;5053499;28;20083;-45
2022/09/18 12:10:53;;;;;;;5.60;0.90;;;12.50;99.90;;;;;;5053613;28;20033;-45
2022/09/18 12:13:47;;;;;;;6.18;1.40;;;12.60;99.90;;;;;;5053246;28;20055;-46
2022/09/18 12:16:38;;;;;;;5.65;1.20;;;12.40;99.90;;;;;;5053413;28;20072;-45
2022/09/18 12:19:28;;;;;;;9.55;1.20;;;12.40;99.90;;;;;;5042137;28;20037;-46
2022/09/18 12:22:15;;;;;;;9.68;1.00;;;12.50;99.90;;;;;;5053183;28;20094;-45
2022/09/18 12:24:40;;;;;;;8.80;1.48;;;12.60;99.90;;;;;;5053180;28;20117;-45
2022/09/18 12:27:33;;;;;;;6.93;1.35;;;12.80;99.90;;;;;;5053372;28;20073;-47
2022/09/18 12:30:15;;;;;;;8.80;1.77;;;12.80;99.90;;;;;;5052718;28;20051;-45
2022/09/18 12:33:11;;;;;;;9.20;1.52;;;12.70;99.90;;;;;;5053212;28;20045;-45
2022/09/18 12:35:45;;;;;;;13.55;1.83;;;12.70;99.90;;;;;;5051782;28;20545;-45
2022/09/18 12:38:16;;;;;;;10.07;1.30;;;12.70;99.90;;;;;;5052145;28;20064;-46
2022/09/18 12:40:55;;;;;;;9.77;1.70;;;12.70;99.90;;;;;;5052876;28;20087;-45
2022/09/18 12:43:42;;;;;;;11.90;1.45;;;12.80;99.90;;;;;;5049739;28;20044;-45
2022/09/18 12:46:29;;;;;;;9.60;1.38;;;12.70;99.90;;;;;;5053113;28;20080;-46
2022/09/18 12:49:19;;;;;;;8.68;1.30;;;12.80;99.90;;;;;;5051493;28;20051;-45
2022/09/18 12:51:52;;;;;;;7.43;1.25;;;12.80;99.90;;;;;;5052733;28;20044;-45
2022/09/18 12:54:27;;;;;;;8.43;1.27;;;12.80;99.90;;;;;;5052549;28;20076;-44
2022/09/18 12:57:10;;;;;;;9.43;1.10;;;12.90;99.90;;;;;;5052761;28;20043;-45
2022/09/18 13:00:10;;;;;;;8.60;1.30;;;12.70;99.90;;;;;;5052636;28;20094;-47
2022/09/18 13:02:53;;;;;;;4.47;1.20;;;12.60;99.90;;;;;;5052034;28;20025;-47
2022/09/18 13:05:28;;;;;;;8.90;1.85;;;12.60;99.90;;;;;;5052291;28;20076;-45
2022/09/18 13:08:18;;;;;;;8.40;1.50;;;12.70;99.90;;;;;;5052301;28;20045;-49
2022/09/18 13:10:46;;;;;;;7.43;1.35;;;12.70;99.90;;;;;;5052381;28;20432;-52
2022/09/18 13:13:15;;;;;;;7.70;1.42;;;12.80;99.90;;;;;;5045139;28;20036;-51
2022/09/18 13:15:54;;;;;;;9.93;1.70;;;12.60;99.90;;;;;;5052323;28;20041;-44